Atlanta, Missouri
Current Conditions -  °F | °C
As of 1:11 PM on Saturday 20 Dec 2014 (Local Time) from KIRK Reporting Station
Overcast Overcast  
Wind Chill: 31°   Ceiling: 1100
Heat Index: 38°   Visibility: 8mi
Dew Point: 35°   Wind: 9mph
Humidity: 89%   Direction: 200°SSW
Pressure: 30.17"   Gusts: NA
Location:  39.9°N, 92.48°W
Report Text: KIRK 201911Z AUTO 20008KT 8SM BKN011 OVC019 03/02 A3017 RMK AO2 T00330017
Loading
Personal Weather Stations






























Interactive Weather Map New forecast layout! Learn more

10-Day Weather Forecast

Advertisements
Track Severe Weather on mobile